createdAt,value
2023-03-28T00:01:00.518Z,59.58
2023-03-28T00:02:22.908Z,59.12
2023-03-28T00:03:45.256Z,59.55
2023-03-28T00:05:08.102Z,59.48
2023-03-28T00:06:31.773Z,59.54
2023-03-28T00:07:55.192Z,59.45
2023-03-28T00:09:18.146Z,59.51
2023-03-28T00:10:39.464Z,59.63
2023-03-28T00:12:01.781Z,59.51
2023-03-28T00:13:29.984Z,59.63
2023-03-28T00:14:52.335Z,59.63
2023-03-28T00:16:15.468Z,59.88
2023-03-28T00:17:37.383Z,59.61
2023-03-28T00:19:01.100Z,59.63
2023-03-28T00:20:23.800Z,59.61
2023-03-28T00:21:48.886Z,59.69
2023-03-28T00:23:12.271Z,59.72
2023-03-28T00:24:35.526Z,59.61
2023-03-28T00:25:57.468Z,59.63
2023-03-28T00:27:23.035Z,59.89
2023-03-28T00:28:46.342Z,59.84
2023-03-28T00:30:09.899Z,59.87
2023-03-28T00:31:35.232Z,60.09
2023-03-28T00:32:57.800Z,59.67
2023-03-28T00:34:21.334Z,60.08
2023-03-28T00:35:44.252Z,60.08
2023-03-28T00:37:06.664Z,60.03
2023-03-28T00:38:28.413Z,60.19
2023-03-28T00:39:51.222Z,60.03
2023-03-28T00:41:16.242Z,60.07
2023-03-28T00:42:42.395Z,60.49
2023-03-28T00:44:38.454Z,60.27
2023-03-28T00:46:09.070Z,60.11
2023-03-28T00:47:44.059Z,60.03
2023-03-28T00:49:12.511Z,60.23
2023-03-28T00:50:37.199Z,60.50
2023-03-28T00:52:32.733Z,60.15
2023-03-28T00:54:00.364Z,60.26
2023-03-28T00:55:28.753Z,60.18
2023-03-28T00:56:55.986Z,60.20
2023-03-28T00:58:23.481Z,60.38
2023-03-28T00:59:48.624Z,60.26
2023-03-28T01:01:15.958Z,60.47
2023-03-28T01:02:37.476Z,60.40
2023-03-28T01:04:03.373Z,60.42
2023-03-28T01:05:31.702Z,60.58
2023-03-28T01:06:59.109Z,60.34
2023-03-28T01:08:27.392Z,60.60
2023-03-28T01:09:52.358Z,60.53
2023-03-28T01:11:16.207Z,60.78
2023-03-28T01:12:38.058Z,60.77
2023-03-28T01:14:02.385Z,60.75
2023-03-28T01:15:24.608Z,60.79
2023-03-28T01:16:58.797Z,60.96
2023-03-28T01:18:28.460Z,60.98
2023-03-28T01:20:06.401Z,60.90
2023-03-28T01:21:55.041Z,60.87
2023-03-28T01:23:51.773Z,60.90
2023-03-28T01:25:53.891Z,60.66
2023-03-28T01:27:20.987Z,60.46
2023-03-28T01:29:13.097Z,60.73
2023-03-28T01:31:06.213Z,60.63
2023-03-28T01:33:34.398Z,60.67
2023-03-28T01:35:38.183Z,60.65
2023-03-28T01:37:16.259Z,60.64
2023-03-28T01:38:51.843Z,60.53
2023-03-28T01:40:39.915Z,60.64
2023-03-28T01:42:11.992Z,60.68
2023-03-28T01:43:42.989Z,60.62
2023-03-28T01:45:15.524Z,60.58
2023-03-28T01:46:41.709Z,60.51
2023-03-28T01:48:12.393Z,60.69
2023-03-28T01:49:40.461Z,60.67
2023-03-28T01:51:10.460Z,60.58
2023-03-28T01:52:39.212Z,60.62
2023-03-28T01:54:05.512Z,60.51
2023-03-28T01:55:30.474Z,60.49
2023-03-28T01:57:05.246Z,60.58
2023-03-28T01:58:42.019Z,60.56
2023-03-28T02:00:19.808Z,60.50
2023-03-28T02:02:07.722Z,60.56
2023-03-28T02:03:35.206Z,60.62
2023-03-28T02:05:08.067Z,60.85
2023-03-28T02:06:36.136Z,60.85
2023-03-28T02:08:03.744Z,60.96
2023-03-28T02:09:39.354Z,61.20
2023-03-28T02:11:07.872Z,61.16
2023-03-28T02:12:48.563Z,61.24
2023-03-28T02:14:37.483Z,61.13
2023-03-28T02:16:23.387Z,61.33
2023-03-28T02:18:11.440Z,61.65
2023-03-28T02:20:09.115Z,61.78
2023-03-28T02:21:55.228Z,61.62
2023-03-28T02:23:34.416Z,61.80
2023-03-28T02:25:19.830Z,61.63
2023-03-28T02:27:24.015Z,61.98
2023-03-28T02:29:08.866Z,61.97
2023-03-28T02:30:45.365Z,62.13
2023-03-28T02:32:08.910Z,62.06
2023-03-28T02:33:37.953Z,62.24
2023-03-28T02:35:02.573Z,62.04
2023-03-28T02:36:41.295Z,62.82
2023-03-28T02:38:13.174Z,62.23
2023-03-28T02:39:53.779Z,62.14
2023-03-28T02:41:28.976Z,62.20
2023-03-28T02:43:38.506Z,62.25
2023-03-28T02:45:24.570Z,62.00
2023-03-28T02:46:56.141Z,61.78
2023-03-28T02:48:26.804Z,62.09
2023-03-28T02:50:02.871Z,61.93
2023-03-28T02:51:35.182Z,61.91
2023-03-28T02:53:04.540Z,61.84
2023-03-28T02:54:36.060Z,61.86
2023-03-28T02:56:26.412Z,61.67
2023-03-28T02:58:22.558Z,61.63
2023-03-28T02:59:49.026Z,61.59
2023-03-28T03:01:14.878Z,61.49
2023-03-28T03:02:36.383Z,61.53
2023-03-28T03:04:00.917Z,61.54
2023-03-28T03:05:22.428Z,61.39
2023-03-28T03:06:46.547Z,61.27
2023-03-28T03:08:09.385Z,61.41
2023-03-28T03:09:31.652Z,61.33
2023-03-28T03:10:53.986Z,61.49
2023-03-28T03:12:16.668Z,61.60
2023-03-28T03:13:38.874Z,61.58
2023-03-28T03:15:02.383Z,61.45
2023-03-28T03:16:54.574Z,61.46
2023-03-28T03:18:17.080Z,61.45
2023-03-28T03:19:43.661Z,61.32
2023-03-28T03:21:06.689Z,61.27
2023-03-28T03:22:31.655Z,61.22
2023-03-28T03:23:53.807Z,61.16
2023-03-28T03:25:19.023Z,61.09
2023-03-28T03:26:51.702Z,60.89
2023-03-28T03:28:16.527Z,60.75
2023-03-28T03:29:39.565Z,60.88
2023-03-28T03:31:07.487Z,60.74
2023-03-28T03:32:30.979Z,60.74
2023-03-28T03:33:57.942Z,60.68
2023-03-28T03:35:25.147Z,60.83
2023-03-28T03:36:50.218Z,60.75
2023-03-28T03:38:12.299Z,60.69
2023-03-28T03:39:36.174Z,60.77
2023-03-28T03:40:57.488Z,60.82
2023-03-28T03:42:20.429Z,60.57
2023-03-28T03:43:47.563Z,60.71
2023-03-28T03:45:18.698Z,60.64
2023-03-28T03:46:41.997Z,60.72
2023-03-28T03:48:03.813Z,60.38
2023-03-28T03:49:26.474Z,60.46
2023-03-28T03:50:48.084Z,60.41
2023-03-28T03:52:11.907Z,60.56
2023-03-28T03:53:34.464Z,60.34
2023-03-28T03:55:02.533Z,60.48
2023-03-28T03:56:24.930Z,60.38
2023-03-28T03:57:51.077Z,60.15
2023-03-28T03:59:14.864Z,60.15
2023-03-28T04:00:37.766Z,60.33
2023-03-28T04:02:03.702Z,60.34
2023-03-28T04:03:35.449Z,60.07
2023-03-28T04:05:00.030Z,60.03
2023-03-28T04:06:41.565Z,60.07
2023-03-28T04:08:09.596Z,59.64
2023-03-28T04:09:36.070Z,59.65
2023-03-28T04:10:59.649Z,59.73
2023-03-28T04:12:23.288Z,59.49
2023-03-28T04:13:47.924Z,59.28
2023-03-28T04:15:12.458Z,59.19
2023-03-28T04:16:40.803Z,59.31
2023-03-28T04:18:08.322Z,58.98
2023-03-28T04:19:40.336Z,58.86
2023-03-28T04:21:04.027Z,58.76
2023-03-28T04:22:36.057Z,58.49
2023-03-28T04:24:15.794Z,58.87
2023-03-28T04:25:44.777Z,58.42
2023-03-28T04:27:15.961Z,58.51
2023-03-28T04:28:42.662Z,58.70
2023-03-28T04:30:08.754Z,58.73
2023-03-28T04:31:54.441Z,58.35
2023-03-28T04:33:17.309Z,58.47
2023-03-28T04:34:46.539Z,58.50
2023-03-28T04:36:12.513Z,58.84
2023-03-28T04:37:37.900Z,59.16
2023-03-28T04:39:04.037Z,59.72
2023-03-28T04:40:56.755Z,60.14
2023-03-28T04:42:48.130Z,60.37
2023-03-28T04:44:16.299Z,60.93
2023-03-28T04:45:44.064Z,61.06
2023-03-28T04:47:13.280Z,61.53
2023-03-28T04:48:35.534Z,61.83
2023-03-28T04:49:58.584Z,62.17
2023-03-28T04:51:29.937Z,62.65
2023-03-28T04:52:53.075Z,62.78
2023-03-28T04:54:14.899Z,62.79
2023-03-28T04:55:51.935Z,63.02
2023-03-28T04:57:26.980Z,63.38
2023-03-28T04:58:55.362Z,63.42
2023-03-28T05:00:22.819Z,63.76
2023-03-28T05:02:18.932Z,64.02
2023-03-28T05:03:58.100Z,64.15
2023-03-28T05:05:23.889Z,64.81
2023-03-28T05:06:46.799Z,65.10
2023-03-28T05:08:11.756Z,65.46
2023-03-28T05:09:34.147Z,65.62
2023-03-28T05:10:58.171Z,66.17
2023-03-28T05:12:22.287Z,66.19
2023-03-28T05:13:56.647Z,66.15
2023-03-28T05:15:25.797Z,66.19
2023-03-28T05:17:08.330Z,65.77
2023-03-28T05:19:01.372Z,65.25
2023-03-28T05:20:43.610Z,65.07
2023-03-28T05:22:06.868Z,65.08
2023-03-28T05:23:31.314Z,64.92
2023-03-28T05:24:55.646Z,64.86
2023-03-28T05:26:17.741Z,64.72
2023-03-28T05:27:40.158Z,64.95
2023-03-28T05:29:02.948Z,64.47
2023-03-28T05:30:25.668Z,64.79
2023-03-28T05:31:55.227Z,64.42
2023-03-28T05:33:40.984Z,64.14
2023-03-28T05:35:06.035Z,64.38
2023-03-28T05:37:02.164Z,64.26
2023-03-28T05:38:39.979Z,64.05
2023-03-28T05:40:15.599Z,63.98
2023-03-28T05:41:48.507Z,63.90
2023-03-28T05:43:11.839Z,64.02
2023-03-28T05:44:59.912Z,64.00
2023-03-28T05:46:41.122Z,63.85
2023-03-28T05:48:06.348Z,63.96
2023-03-28T05:49:33.810Z,63.94
2023-03-28T05:50:57.660Z,63.72
2023-03-28T05:52:20.408Z,64.06
2023-03-28T05:53:43.415Z,64.31
2023-03-28T05:55:07.270Z,64.46
2023-03-28T05:56:32.707Z,64.29
2023-03-28T05:57:55.287Z,64.12
2023-03-28T05:59:25.186Z,63.81
2023-03-28T06:00:51.055Z,63.81
2023-03-28T06:02:13.403Z,63.46
2023-03-28T06:03:42.919Z,63.57
2023-03-28T06:05:05.110Z,63.86
2023-03-28T06:06:29.098Z,63.81
2023-03-28T06:07:53.080Z,63.61
2023-03-28T06:09:15.765Z,63.35
2023-03-28T06:10:45.596Z,63.14
2023-03-28T06:12:15.691Z,62.90
2023-03-28T06:13:44.390Z,62.58
2023-03-28T06:15:11.977Z,62.74
2023-03-28T06:16:38.848Z,62.24
2023-03-28T06:18:01.372Z,62.15
2023-03-28T06:19:24.045Z,62.24
2023-03-28T06:21:04.314Z,62.14
2023-03-28T06:22:28.411Z,61.79
2023-03-28T06:23:57.035Z,61.45
2023-03-28T06:25:25.816Z,61.13
2023-03-28T06:26:48.474Z,60.29
2023-03-28T06:28:15.227Z,59.87
2023-03-28T06:29:56.740Z,59.92
2023-03-28T06:31:19.876Z,60.03
2023-03-28T06:32:43.057Z,60.07
2023-03-28T06:34:05.994Z,60.17
2023-03-28T06:35:29.760Z,59.93
2023-03-28T06:36:55.071Z,60.30
2023-03-28T06:38:20.357Z,60.51
2023-03-28T06:39:46.940Z,60.23
2023-03-28T06:41:09.523Z,60.70
2023-03-28T06:42:31.138Z,60.85
2023-03-28T06:44:15.529Z,60.87
2023-03-28T06:45:52.027Z,60.39
2023-03-28T06:47:21.324Z,60.52
2023-03-28T06:48:46.805Z,60.40
2023-03-28T06:50:28.760Z,60.61
2023-03-28T06:55:03.550Z,60.93
2023-03-28T06:56:52.539Z,60.78
2023-03-28T06:59:17.204Z,60.86
2023-03-28T07:06:28.361Z,60.52
2023-03-28T07:07:54.692Z,60.28
2023-03-28T07:09:20.207Z,59.94
2023-03-28T07:10:53.678Z,59.90
2023-03-28T07:12:18.805Z,59.98
2023-03-28T07:13:41.464Z,59.32
2023-03-28T07:15:06.361Z,58.96
2023-03-28T07:16:28.727Z,58.55
2023-03-28T07:18:12.882Z,57.50
2023-03-28T07:19:38.076Z,57.31
2023-03-28T07:21:10.408Z,56.50
2023-03-28T07:22:32.688Z,56.76
2023-03-28T07:24:00.563Z,56.94
2023-03-28T07:25:37.398Z,57.00
2023-03-28T07:27:14.076Z,57.03
2023-03-28T07:30:15.649Z,56.36
2023-03-28T07:31:39.017Z,56.16
2023-03-28T07:33:16.236Z,56.07
2023-03-28T07:34:43.249Z,55.32
2023-03-28T07:36:28.032Z,54.94
2023-03-28T07:38:23.085Z,54.11
2023-03-28T07:39:48.220Z,52.42
2023-03-28T07:41:14.669Z,52.21
2023-03-28T07:42:49.812Z,52.82
2023-03-28T07:44:20.304Z,52.95
2023-03-28T07:45:49.899Z,53.19
2023-03-28T07:47:12.591Z,53.15
2023-03-28T07:48:49.349Z,52.87
2023-03-28T07:53:14.413Z,53.27
2023-03-28T07:54:37.490Z,52.86
2023-03-28T07:56:01.533Z,52.91
2023-03-28T07:57:50.226Z,52.43
2023-03-28T07:59:41.202Z,52.21
2023-03-28T08:01:08.456Z,52.16
2023-03-28T08:02:43.228Z,52.71
2023-03-28T08:04:19.208Z,53.25
2023-03-28T08:06:13.451Z,53.46
2023-03-28T08:07:46.251Z,54.49
2023-03-28T08:09:10.087Z,54.44
2023-03-28T08:10:52.317Z,54.07
2023-03-28T08:12:15.495Z,53.97
2023-03-28T08:13:50.809Z,53.45
2023-03-28T08:15:24.738Z,53.20
2023-03-28T08:20:14.190Z,49.89
2023-03-28T08:22:02.898Z,49.18
2023-03-28T08:23:43.103Z,47.77
2023-03-28T08:26:18.928Z,45.28
2023-03-28T08:28:02.216Z,45.44
2023-03-28T08:29:40.596Z,45.05
2023-03-28T08:31:18.645Z,43.97
2023-03-28T08:33:07.121Z,40.96
2023-03-28T08:34:43.811Z,42.28
2023-03-28T08:36:29.889Z,42.42
2023-03-28T08:37:52.709Z,42.79
2023-03-28T08:39:15.482Z,42.74
2023-03-28T08:40:47.157Z,42.95
2023-03-28T08:42:50.426Z,42.96
2023-03-28T08:44:37.108Z,43.03
2023-03-28T08:48:46.050Z,34.05
2023-03-28T08:50:45.085Z,34.74
2023-03-28T08:52:20.821Z,35.28
2023-03-28T08:55:03.337Z,32.25
2023-03-28T08:56:26.093Z,32.64
2023-03-28T08:58:15.903Z,29.15
2023-03-28T09:00:03.738Z,30.87
2023-03-28T09:01:49.096Z,31.20
2023-03-28T09:05:58.043Z,32.29
2023-03-28T09:10:02.740Z,35.63
2023-03-28T09:12:17.619Z,37.41
2023-03-28T09:14:02.402Z,38.90
2023-03-28T09:15:43.108Z,40.17
2023-03-28T09:17:22.802Z,40.79
2023-03-28T09:19:06.576Z,40.90
2023-03-28T09:20:46.883Z,41.25
2023-03-28T09:22:30.256Z,38.95
2023-03-28T09:24:11.062Z,36.39
2023-03-28T09:26:01.809Z,36.07
2023-03-28T09:27:33.939Z,36.32
2023-03-28T09:29:12.901Z,36.15
2023-03-28T09:30:38.885Z,35.95
2023-03-28T09:32:11.211Z,34.52
2023-03-28T09:33:49.949Z,33.17
2023-03-28T09:35:22.961Z,32.95
2023-03-28T09:36:50.605Z,32.18
2023-03-28T09:38:23.276Z,31.45
2023-03-28T09:39:54.032Z,31.65
2023-03-28T09:41:27.367Z,32.31
2023-03-28T09:43:20.307Z,32.69
2023-03-28T09:45:35.212Z,33.59
2023-03-28T09:47:17.226Z,34.44
2023-03-28T10:01:03.942Z,36.90
2023-03-28T10:07:39.513Z,35.81
2023-03-28T10:13:16.000Z,32.35
2023-03-28T10:14:52.277Z,29.76
2023-03-28T10:16:38.012Z,28.64
2023-03-28T10:18:27.162Z,31.57
2023-03-28T10:20:25.692Z,28.22
2023-03-28T10:22:03.068Z,28.26
2023-03-28T10:23:31.237Z,26.07
2023-03-28T10:28:02.244Z,25.66
2023-03-28T10:31:55.473Z,25.97
2023-03-28T10:33:34.713Z,23.07
2023-03-28T10:35:56.628Z,23.96
2023-03-28T10:37:43.164Z,23.15
2023-03-28T10:43:38.476Z,24.77
2023-03-28T10:49:30.873Z,26.40
2023-03-28T11:04:29.666Z,31.15
2023-03-28T11:09:40.240Z,31.62
2023-03-28T11:12:06.983Z,31.89
2023-03-28T11:13:59.792Z,32.01
2023-03-28T11:15:34.751Z,31.68
2023-03-28T11:18:15.142Z,31.59
2023-03-28T11:21:14.436Z,32.37
2023-03-28T11:26:12.933Z,32.95
2023-03-28T11:28:24.054Z,33.50
2023-03-28T11:29:58.485Z,33.59
2023-03-28T11:31:33.704Z,33.88
2023-03-28T11:33:07.108Z,34.09
2023-03-28T11:34:42.730Z,34.59
2023-03-28T11:36:26.345Z,34.84
2023-03-28T11:39:57.868Z,35.38
2023-03-28T11:41:42.886Z,35.57
2023-03-28T11:43:21.439Z,35.52
2023-03-28T11:44:52.401Z,35.42
2023-03-28T11:46:22.294Z,35.14
2023-03-28T11:47:55.794Z,34.40
2023-03-28T11:49:25.844Z,34.25
2023-03-28T11:51:02.301Z,34.27
2023-03-28T11:52:48.088Z,34.63
2023-03-28T11:54:25.172Z,34.60
2023-03-28T11:55:58.971Z,35.23
2023-03-28T11:57:56.164Z,35.80
2023-03-28T11:59:31.635Z,36.56
2023-03-28T12:01:14.397Z,37.31
2023-03-28T12:02:44.248Z,37.62
2023-03-28T12:04:18.808Z,38.00
2023-03-28T12:05:48.946Z,38.10
2023-03-28T12:07:22.796Z,38.79
2023-03-28T12:08:57.611Z,38.74
2023-03-28T12:10:28.773Z,38.72
2023-03-28T12:12:07.111Z,38.51
2023-03-28T12:13:45.175Z,38.74
2023-03-28T12:15:19.714Z,39.31
2023-03-28T12:16:55.736Z,39.06
2023-03-28T12:19:11.685Z,39.18
2023-03-28T12:20:59.315Z,39.30
2023-03-28T12:23:01.435Z,39.17
2023-03-28T12:24:50.582Z,39.51
2023-03-28T12:27:18.226Z,39.84
2023-03-28T12:29:03.133Z,40.45
2023-03-28T12:32:44.823Z,42.59
2023-03-28T12:34:22.348Z,43.10
2023-03-28T12:36:28.149Z,43.87
2023-03-28T12:38:05.022Z,45.23
2023-03-28T12:39:49.167Z,46.08
2023-03-28T12:41:37.904Z,46.33
2023-03-28T12:43:14.020Z,46.73
2023-03-28T12:44:44.478Z,47.02
2023-03-28T12:46:15.206Z,47.40
2023-03-28T12:47:49.612Z,47.10
2023-03-28T12:49:19.620Z,47.47
2023-03-28T12:50:49.829Z,47.65
2023-03-28T12:52:19.321Z,47.36
2023-03-28T12:54:55.343Z,47.61
2023-03-28T12:56:17.109Z,47.45
2023-03-28T12:57:56.068Z,47.82
2023-03-28T13:00:07.623Z,48.13
2023-03-28T13:01:54.938Z,48.02
2023-03-28T13:26:52.422Z,46.33
2023-03-28T13:28:31.665Z,44.88
2023-03-28T13:30:09.544Z,43.82
2023-03-28T13:31:47.627Z,44.35
2023-03-28T13:36:06.377Z,44.41
2023-03-28T13:37:50.465Z,44.47
2023-03-28T13:39:33.603Z,44.92
2023-03-28T13:40:59.731Z,45.13
2023-03-28T13:42:35.199Z,45.13
2023-03-28T13:44:10.764Z,45.22
2023-03-28T13:45:54.714Z,45.48
2023-03-28T13:48:12.404Z,46.03
2023-03-28T13:49:59.762Z,45.59
2023-03-28T13:51:29.495Z,45.52
2023-03-28T13:53:02.391Z,45.68
2023-03-28T13:54:43.503Z,45.80
2023-03-28T13:56:22.016Z,46.20
2023-03-28T13:57:44.220Z,46.35
2023-03-28T13:59:45.229Z,46.53
2023-03-28T14:01:26.072Z,46.74
2023-03-28T14:03:06.140Z,46.84
2023-03-28T14:04:46.869Z,46.81
2023-03-28T14:06:27.935Z,46.61
2023-03-28T14:11:34.535Z,46.59
2023-03-28T14:13:14.113Z,46.57
2023-03-28T14:15:00.667Z,46.59
2023-03-28T14:18:57.461Z,46.71
2023-03-28T14:20:21.660Z,46.57
2023-03-28T14:25:59.723Z,46.04
2023-03-28T14:27:58.987Z,45.77
2023-03-28T14:30:08.609Z,44.97
2023-03-28T14:31:44.572Z,44.74
2023-03-28T14:35:24.317Z,44.07
2023-03-28T14:37:48.200Z,44.20
2023-03-28T14:47:40.859Z,42.39
2023-03-28T14:49:26.586Z,42.12
2023-03-28T14:50:57.961Z,41.65
2023-03-28T14:52:43.638Z,41.27
2023-03-28T14:54:08.580Z,41.21
2023-03-28T14:55:47.817Z,41.25
2023-03-28T15:02:35.954Z,41.19
2023-03-28T15:04:12.648Z,41.17
2023-03-28T15:06:00.050Z,40.63
2023-03-28T15:07:38.426Z,40.58
2023-03-28T15:09:18.269Z,40.45
2023-03-28T15:11:03.445Z,40.28
2023-03-28T15:17:46.155Z,40.30
2023-03-28T15:31:44.607Z,40.07
2023-03-28T15:34:26.425Z,39.82
2023-03-28T15:55:53.808Z,39.83
2023-03-28T15:57:21.917Z,39.54
2023-03-28T15:58:50.721Z,39.41
2023-03-28T16:00:58.059Z,39.02
2023-03-28T16:02:51.978Z,38.96
2023-03-28T16:10:15.929Z,38.83
2023-03-28T16:12:32.850Z,38.97
2023-03-28T16:14:42.878Z,39.06
2023-03-28T16:16:56.280Z,38.74
2023-03-28T16:18:55.066Z,39.33
2023-03-28T16:24:11.440Z,38.80
2023-03-28T16:41:54.456Z,39.11
2023-03-28T16:43:30.172Z,38.47
2023-03-28T16:44:52.111Z,38.58
2023-03-28T16:46:17.017Z,38.41
2023-03-28T16:47:38.889Z,38.25
2023-03-28T16:49:01.813Z,38.51
2023-03-28T16:50:22.720Z,38.42
2023-03-28T16:51:44.616Z,38.35
2023-03-28T16:53:06.706Z,38.35
2023-03-28T16:54:30.354Z,38.38
2023-03-28T16:55:53.247Z,38.17
2023-03-28T16:57:18.747Z,37.96
2023-03-28T16:58:43.227Z,37.76
2023-03-28T17:00:07.316Z,37.57
2023-03-28T17:01:30.654Z,37.63
2023-03-28T17:02:53.166Z,37.43
2023-03-28T17:04:15.618Z,37.43
2023-03-28T17:05:40.356Z,37.23
2023-03-28T17:07:02.582Z,37.54
2023-03-28T17:08:25.504Z,37.24
2023-03-28T17:09:48.512Z,37.23
2023-03-28T17:11:12.961Z,37.43
2023-03-28T17:12:35.989Z,37.25
2023-03-28T17:14:03.257Z,37.05
2023-03-28T17:15:28.989Z,37.33
2023-03-28T17:16:54.284Z,37.34
2023-03-28T17:18:16.501Z,37.50
2023-03-28T17:19:39.678Z,37.17
2023-03-28T17:21:08.155Z,37.14
2023-03-28T17:22:30.525Z,37.02
2023-03-28T17:23:55.803Z,37.04
2023-03-28T17:25:20.638Z,37.14
2023-03-28T17:26:45.068Z,37.08
2023-03-28T17:28:09.065Z,37.08
2023-03-28T17:29:34.610Z,37.31
2023-03-28T17:30:59.737Z,37.05
2023-03-28T17:32:23.526Z,37.16
2023-03-28T17:33:47.040Z,37.21
2023-03-28T17:35:11.998Z,37.40
2023-03-28T17:36:38.003Z,37.37
2023-03-28T17:38:01.382Z,37.37
2023-03-28T17:39:29.772Z,37.28
2023-03-28T17:40:52.403Z,37.24
2023-03-28T17:42:15.556Z,37.25
2023-03-28T17:43:43.908Z,37.27
2023-03-28T17:45:18.301Z,37.22
2023-03-28T17:46:50.837Z,37.29
2023-03-28T17:48:25.869Z,37.71
2023-03-28T17:50:32.883Z,37.49
2023-03-28T17:52:04.879Z,37.63
2023-03-28T17:53:52.390Z,37.64
2023-03-28T17:55:20.721Z,37.69
2023-03-28T17:56:45.392Z,38.19
2023-03-28T17:58:18.920Z,38.18
2023-03-28T17:59:43.845Z,38.26
2023-03-28T18:01:12.325Z,37.93
2023-03-28T18:02:35.906Z,38.02
2023-03-28T18:04:12.418Z,38.05
2023-03-28T18:06:16.066Z,38.30
2023-03-28T18:07:43.366Z,38.18
2023-03-28T18:09:08.007Z,38.05
2023-03-28T18:10:34.539Z,37.84
2023-03-28T18:12:00.123Z,37.91
2023-03-28T18:13:23.841Z,37.70
2023-03-28T18:14:50.798Z,38.01
2023-03-28T18:16:21.037Z,37.86
2023-03-28T18:17:47.717Z,37.99
2023-03-28T18:19:22.373Z,37.86
2023-03-28T18:20:46.165Z,37.85
2023-03-28T18:22:12.940Z,37.60
2023-03-28T18:23:38.526Z,37.99
2023-03-28T18:25:05.440Z,37.83
2023-03-28T18:26:55.994Z,37.64
2023-03-28T18:28:22.337Z,37.81
2023-03-28T18:29:45.297Z,38.14
2023-03-28T18:31:17.761Z,37.85
2023-03-28T18:32:56.118Z,37.70
2023-03-28T18:34:23.945Z,37.76
2023-03-28T18:36:14.901Z,37.75
2023-03-28T18:37:38.969Z,37.73
2023-03-28T18:42:15.407Z,38.66
2023-03-28T18:43:45.905Z,38.53
2023-03-28T18:45:09.905Z,38.62
2023-03-28T18:46:34.847Z,38.55
2023-03-28T18:48:04.697Z,38.50
2023-03-28T18:49:55.914Z,38.51
2023-03-28T18:51:23.443Z,38.28
2023-03-28T18:52:50.629Z,38.33
2023-03-28T18:54:15.061Z,38.78
2023-03-28T18:55:40.444Z,38.70
2023-03-28T18:57:10.665Z,38.65
2023-03-28T18:58:37.428Z,38.94
2023-03-28T19:00:02.590Z,39.14
2023-03-28T19:01:30.637Z,39.12
2023-03-28T19:03:12.028Z,38.75
2023-03-28T19:04:40.083Z,39.02
2023-03-28T19:06:09.720Z,39.35
2023-03-28T19:07:32.487Z,39.06
2023-03-28T19:09:41.111Z,39.12
2023-03-28T19:11:21.879Z,39.49
2023-03-28T19:13:16.047Z,39.71
2023-03-28T19:15:35.566Z,39.70
2023-03-28T19:17:04.029Z,39.77
2023-03-28T19:18:44.213Z,39.83
2023-03-28T19:20:16.820Z,39.93
2023-03-28T19:21:51.130Z,39.83
2023-03-28T19:23:18.369Z,40.16
2023-03-28T19:25:14.784Z,39.85
2023-03-28T19:26:47.190Z,40.01
2023-03-28T19:28:18.360Z,39.88
2023-03-28T19:29:42.476Z,39.81
2023-03-28T19:31:29.153Z,39.57
2023-03-28T19:35:27.131Z,39.53
2023-03-28T19:36:54.585Z,39.80
2023-03-28T19:38:26.421Z,39.35
2023-03-28T19:39:53.593Z,39.52
2023-03-28T19:42:14.446Z,39.43
2023-03-28T19:43:38.388Z,39.56
2023-03-28T19:45:11.052Z,39.71
2023-03-28T19:46:37.940Z,39.56
2023-03-28T19:48:02.673Z,39.78
2023-03-28T19:49:28.913Z,39.28
2023-03-28T19:50:54.304Z,39.75
2023-03-28T19:52:18.043Z,39.61
2023-03-28T19:53:42.095Z,40.07
2023-03-28T19:55:04.622Z,39.86
2023-03-28T19:56:27.967Z,39.81
2023-03-28T19:57:53.959Z,39.74
2023-03-28T19:59:17.040Z,39.89
2023-03-28T20:00:45.072Z,39.94
2023-03-28T20:02:08.892Z,39.99
2023-03-28T20:03:31.741Z,39.94
2023-03-28T20:04:54.965Z,39.85
2023-03-28T20:06:21.966Z,40.17
2023-03-28T20:08:02.557Z,40.33
2023-03-28T20:09:26.255Z,40.60
2023-03-28T20:10:51.988Z,40.48
2023-03-28T20:12:18.605Z,40.56
2023-03-28T20:13:47.151Z,40.66
2023-03-28T20:15:12.894Z,40.70
2023-03-28T20:16:39.020Z,40.65
2023-03-28T20:18:01.661Z,40.61
2023-03-28T20:19:26.248Z,40.87
2023-03-28T20:20:54.292Z,40.91
2023-03-28T20:22:20.832Z,40.75
2023-03-28T20:23:44.558Z,41.27
2023-03-28T20:25:07.432Z,40.95
2023-03-28T20:26:30.252Z,41.11
2023-03-28T20:27:53.902Z,41.40
2023-03-28T20:29:18.214Z,41.63
2023-03-28T20:30:42.534Z,41.78
2023-03-28T20:32:07.961Z,41.82
2023-03-28T20:33:41.842Z,41.67
2023-03-28T20:35:41.007Z,41.68
2023-03-28T20:37:21.788Z,41.85
2023-03-28T20:38:55.337Z,41.99
2023-03-28T20:40:21.689Z,42.00
2023-03-28T20:41:45.629Z,42.28
2023-03-28T20:43:10.219Z,42.12
2023-03-28T20:44:40.004Z,42.34
2023-03-28T20:46:05.087Z,42.03
2023-03-28T20:47:29.191Z,42.46
2023-03-28T20:48:54.707Z,42.28
2023-03-28T20:50:17.540Z,42.52
2023-03-28T20:51:39.908Z,42.56
2023-03-28T20:53:05.672Z,42.28
2023-03-28T20:54:28.478Z,42.24
2023-03-28T20:55:51.150Z,42.63
2023-03-28T20:57:13.293Z,42.36
2023-03-28T21:01:22.509Z,42.25
2023-03-28T21:03:02.231Z,42.48
2023-03-28T21:05:15.835Z,42.52
2023-03-28T21:07:54.601Z,42.81
2023-03-28T21:09:43.878Z,42.72
2023-03-28T21:11:26.054Z,42.58
2023-03-28T21:13:01.996Z,42.71
2023-03-28T21:14:37.747Z,42.81
2023-03-28T21:16:19.694Z,43.00
2023-03-28T21:17:50.927Z,42.96
2023-03-28T21:21:09.352Z,43.15
2023-03-28T21:23:02.363Z,43.25
2023-03-28T21:25:06.824Z,43.39
2023-03-28T21:29:21.179Z,43.66
2023-03-28T21:31:56.162Z,43.91
2023-03-28T21:33:17.109Z,43.83
2023-03-28T21:34:54.398Z,44.03
2023-03-28T21:36:26.904Z,44.17
2023-03-28T21:37:52.941Z,44.23
2023-03-28T21:39:29.936Z,44.33
2023-03-28T21:47:46.611Z,44.77
2023-03-28T21:57:26.119Z,44.82
2023-03-28T21:59:12.981Z,45.42
2023-03-28T22:00:48.802Z,45.31
2023-03-28T22:02:45.299Z,45.66
2023-03-28T22:04:16.628Z,46.18
2023-03-28T22:05:46.741Z,46.17
2023-03-28T22:07:26.301Z,46.30
2023-03-28T22:09:04.749Z,46.78
2023-03-28T22:15:50.183Z,46.95
2023-03-28T22:23:18.500Z,46.85
2023-03-28T22:26:45.789Z,46.87
2023-03-28T22:31:24.608Z,47.13
2023-03-28T23:00:34.582Z,48.62
2023-03-28T23:04:28.976Z,48.90
2023-03-28T23:08:25.470Z,49.05
2023-03-28T23:10:39.959Z,49.26
2023-03-28T23:23:32.513Z,49.95
2023-03-28T23:25:59.357Z,49.98
2023-03-28T23:28:20.320Z,50.05
2023-03-28T23:30:29.230Z,49.84
2023-03-28T23:34:01.420Z,50.17
2023-03-28T23:36:05.629Z,50.35
2023-03-28T23:40:56.144Z,50.07
2023-03-28T23:42:33.877Z,50.60
2023-03-28T23:44:21.912Z,50.41
2023-03-28T23:46:33.701Z,50.73
2023-03-28T23:47:56.082Z,50.50
2023-03-28T23:49:17.207Z,50.59
2023-03-28T23:50:39.459Z,51.00
2023-03-28T23:52:05.561Z,50.96
2023-03-28T23:53:28.028Z,51.12
2023-03-28T23:54:50.129Z,51.36
2023-03-28T23:56:12.285Z,51.24
2023-03-28T23:57:34.541Z,51.23
2023-03-28T23:58:55.795Z,51.17
